sensor_id;sensor_type;location;lat;lon;timestamp;P1;durP1;ratioP1;P2;durP2;ratioP2
83646;SDS011;73609;50.134;14.376;2024-03-08T00:00:05;41.9;;;24.6;;
83646;SDS011;73609;50.134;14.376;2024-03-08T00:02:05;39.0;;;24.0;;
83646;SDS011;73609;50.134;14.376;2024-03-08T00:04:05;41.2;;;24.7;;
83646;SDS011;73609;50.134;14.376;2024-03-08T00:06:05;40.8;;;25.2;;
83646;SDS011;73609;50.134;14.376;2024-03-08T00:08:05;41.9;;;25.5;;
83646;SDS011;73609;50.134;14.376;2024-03-08T00:10:05;39.5;;;23.9;;
83646;SDS011;73609;50.134;14.376;2024-03-08T00:12:05;42.1;;;25.6;;
83646;SDS011;73609;50.134;14.376;2024-03-08T00:14:05;42.0;;;25.2;;
83646;SDS011;73609;50.134;14.376;2024-03-08T00:16:05;41.9;;;25.6;;
83646;SDS011;73609;50.134;14.376;2024-03-08T00:18:05;42.2;;;25.6;;
83646;SDS011;73609;50.134;14.376;2024-03-08T00:20:05;44.7;;;26.3;;
83646;SDS011;73609;50.134;14.376;2024-03-08T00:22:05;43.1;;;25.3;;
83646;SDS011;73609;50.134;14.376;2024-03-08T00:24:05;43.9;;;25.1;;
83646;SDS011;73609;50.134;14.376;2024-03-08T00:26:05;42.7;;;25.6;;
83646;SDS011;73609;50.134;14.376;2024-03-08T00:28:05;44.5;;;25.7;;
83646;SDS011;73609;50.134;14.376;2024-03-08T00:30:05;44.7;;;25.7;;
83646;SDS011;73609;50.134;14.376;2024-03-08T00:32:05;48.3;;;26.4;;
83646;SDS011;73609;50.134;14.376;2024-03-08T00:34:05;47.3;;;26.8;;
83646;SDS011;73609;50.134;14.376;2024-03-08T00:36:05;46.7;;;26.4;;
83646;SDS011;73609;50.134;14.376;2024-03-08T00:38:05;41.4;;;25.6;;
83646;SDS011;73609;50.134;14.376;2024-03-08T00:40:05;40.4;;;24.9;;
83646;SDS011;73609;50.134;14.376;2024-03-08T00:42:05;40.7;;;24.5;;
83646;SDS011;73609;50.134;14.376;2024-03-08T00:44:05;43.1;;;25.5;;
83646;SDS011;73609;50.134;14.376;2024-03-08T00:46:05;40.1;;;23.7;;
83646;SDS011;73609;50.134;14.376;2024-03-08T00:48:05;39.4;;;23.6;;
83646;SDS011;73609;50.134;14.376;2024-03-08T00:50:05;42.0;;;24.4;;
83646;SDS011;73609;50.134;14.376;2024-03-08T00:52:05;39.4;;;24.1;;
83646;SDS011;73609;50.134;14.376;2024-03-08T00:54:05;43.3;;;24.5;;
83646;SDS011;73609;50.134;14.376;2024-03-08T00:56:05;38.1;;;23.9;;
83646;SDS011;73609;50.134;14.376;2024-03-08T00:58:05;40.6;;;23.2;;
83646;SDS011;73609;50.134;14.376;2024-03-08T01:00:06;41.1;;;23.8;;
83646;SDS011;73609;50.134;14.376;2024-03-08T01:04:05;36.9;;;22.8;;
83646;SDS011;73609;50.134;14.376;2024-03-08T01:06:05;35.2;;;22.8;;
83646;SDS011;73609;50.134;14.376;2024-03-08T01:08:05;35.8;;;22.6;;
83646;SDS011;73609;50.134;14.376;2024-03-08T01:10:05;37.7;;;23.0;;
83646;SDS011;73609;50.134;14.376;2024-03-08T01:12:05;37.6;;;22.8;;
83646;SDS011;73609;50.134;14.376;2024-03-08T01:14:05;37.3;;;22.3;;
83646;SDS011;73609;50.134;14.376;2024-03-08T01:16:05;37.5;;;21.9;;
83646;SDS011;73609;50.134;14.376;2024-03-08T01:18:05;39.3;;;23.4;;
83646;SDS011;73609;50.134;14.376;2024-03-08T01:20:05;39.3;;;22.6;;
83646;SDS011;73609;50.134;14.376;2024-03-08T01:22:05;39.1;;;22.7;;
83646;SDS011;73609;50.134;14.376;2024-03-08T01:24:05;36.5;;;22.2;;
83646;SDS011;73609;50.134;14.376;2024-03-08T01:26:05;41.1;;;24.0;;
83646;SDS011;73609;50.134;14.376;2024-03-08T01:28:05;36.9;;;23.1;;
83646;SDS011;73609;50.134;14.376;2024-03-08T01:30:05;37.4;;;22.4;;
83646;SDS011;73609;50.134;14.376;2024-03-08T01:32:05;34.3;;;21.5;;
83646;SDS011;73609;50.134;14.376;2024-03-08T01:34:05;39.4;;;23.3;;
83646;SDS011;73609;50.134;14.376;2024-03-08T01:36:05;37.8;;;22.9;;
83646;SDS011;73609;50.134;14.376;2024-03-08T01:38:05;38.3;;;22.7;;
83646;SDS011;73609;50.134;14.376;2024-03-08T01:40:05;39.8;;;22.5;;
83646;SDS011;73609;50.134;14.376;2024-03-08T01:42:05;39.7;;;23.3;;
83646;SDS011;73609;50.134;14.376;2024-03-08T01:44:05;39.5;;;23.7;;
83646;SDS011;73609;50.134;14.376;2024-03-08T01:46:05;40.4;;;24.2;;
83646;SDS011;73609;50.134;14.376;2024-03-08T01:48:05;38.4;;;23.0;;
83646;SDS011;73609;50.134;14.376;2024-03-08T01:50:05;36.8;;;22.2;;
83646;SDS011;73609;50.134;14.376;2024-03-08T01:52:05;34.4;;;22.0;;
83646;SDS011;73609;50.134;14.376;2024-03-08T01:54:05;36.7;;;23.0;;
83646;SDS011;73609;50.134;14.376;2024-03-08T01:56:05;38.0;;;22.9;;
83646;SDS011;73609;50.134;14.376;2024-03-08T01:58:05;38.1;;;22.3;;
83646;SDS011;73609;50.134;14.376;2024-03-08T02:00:05;37.5;;;22.6;;
83646;SDS011;73609;50.134;14.376;2024-03-08T02:02:05;38.5;;;23.0;;
83646;SDS011;73609;50.134;14.376;2024-03-08T02:04:05;36.6;;;22.7;;
83646;SDS011;73609;50.134;14.376;2024-03-08T02:06:05;40.0;;;23.3;;
83646;SDS011;73609;50.134;14.376;2024-03-08T02:08:05;39.0;;;23.8;;
83646;SDS011;73609;50.134;14.376;2024-03-08T02:10:05;40.1;;;23.0;;
83646;SDS011;73609;50.134;14.376;2024-03-08T02:12:05;39.2;;;24.1;;
83646;SDS011;73609;50.134;14.376;2024-03-08T02:14:05;39.2;;;23.3;;
83646;SDS011;73609;50.134;14.376;2024-03-08T02:16:05;37.1;;;22.9;;
83646;SDS011;73609;50.134;14.376;2024-03-08T02:18:06;38.1;;;22.8;;
83646;SDS011;73609;50.134;14.376;2024-03-08T02:20:05;39.5;;;24.0;;
83646;SDS011;73609;50.134;14.376;2024-03-08T02:22:05;37.7;;;22.8;;
83646;SDS011;73609;50.134;14.376;2024-03-08T02:24:05;37.3;;;23.5;;
83646;SDS011;73609;50.134;14.376;2024-03-08T02:26:05;40.4;;;23.6;;
83646;SDS011;73609;50.134;14.376;2024-03-08T02:28:05;37.3;;;22.7;;
83646;SDS011;73609;50.134;14.376;2024-03-08T02:30:05;38.9;;;22.5;;
83646;SDS011;73609;50.134;14.376;2024-03-08T02:32:05;38.8;;;24.2;;
83646;SDS011;73609;50.134;14.376;2024-03-08T02:34:05;38.2;;;23.0;;
83646;SDS011;73609;50.134;14.376;2024-03-08T02:36:05;40.1;;;23.4;;
83646;SDS011;73609;50.134;14.376;2024-03-08T02:38:05;37.3;;;22.4;;
83646;SDS011;73609;50.134;14.376;2024-03-08T02:40:05;36.1;;;23.2;;
83646;SDS011;73609;50.134;14.376;2024-03-08T02:42:05;37.6;;;23.6;;
83646;SDS011;73609;50.134;14.376;2024-03-08T02:44:05;37.4;;;22.7;;
83646;SDS011;73609;50.134;14.376;2024-03-08T02:46:05;40.2;;;23.4;;
83646;SDS011;73609;50.134;14.376;2024-03-08T02:48:05;39.0;;;22.9;;
83646;SDS011;73609;50.134;14.376;2024-03-08T02:50:05;38.3;;;23.8;;
83646;SDS011;73609;50.134;14.376;2024-03-08T02:52:05;39.1;;;23.9;;
83646;SDS011;73609;50.134;14.376;2024-03-08T02:54:05;42.5;;;24.0;;
83646;SDS011;73609;50.134;14.376;2024-03-08T02:56:05;37.9;;;23.0;;
83646;SDS011;73609;50.134;14.376;2024-03-08T02:58:05;39.1;;;23.3;;
83646;SDS011;73609;50.134;14.376;2024-03-08T03:00:05;40.4;;;23.7;;
83646;SDS011;73609;50.134;14.376;2024-03-08T03:02:05;38.4;;;22.8;;
83646;SDS011;73609;50.134;14.376;2024-03-08T03:04:05;37.9;;;22.7;;
83646;SDS011;73609;50.134;14.376;2024-03-08T03:06:05;39.4;;;22.7;;
83646;SDS011;73609;50.134;14.376;2024-03-08T03:08:05;38.9;;;24.0;;
83646;SDS011;73609;50.134;14.376;2024-03-08T03:10:05;40.9;;;23.4;;
83646;SDS011;73609;50.134;14.376;2024-03-08T03:12:05;39.3;;;23.7;;
83646;SDS011;73609;50.134;14.376;2024-03-08T03:14:05;39.4;;;24.3;;
83646;SDS011;73609;50.134;14.376;2024-03-08T03:16:05;39.2;;;23.6;;
83646;SDS011;73609;50.134;14.376;2024-03-08T03:18:05;37.8;;;22.8;;
83646;SDS011;73609;50.134;14.376;2024-03-08T03:20:06;37.3;;;21.9;;
83646;SDS011;73609;50.134;14.376;2024-03-08T03:22:05;39.4;;;23.6;;
83646;SDS011;73609;50.134;14.376;2024-03-08T03:24:05;40.5;;;24.7;;
83646;SDS011;73609;50.134;14.376;2024-03-08T03:26:05;38.5;;;22.7;;
83646;SDS011;73609;50.134;14.376;2024-03-08T03:28:05;48.1;;;24.5;;
83646;SDS011;73609;50.134;14.376;2024-03-08T03:30:05;39.9;;;23.5;;
83646;SDS011;73609;50.134;14.376;2024-03-08T03:32:05;43.5;;;24.1;;
83646;SDS011;73609;50.134;14.376;2024-03-08T03:34:05;40.4;;;23.8;;
83646;SDS011;73609;50.134;14.376;2024-03-08T03:36:05;40.9;;;24.1;;
83646;SDS011;73609;50.134;14.376;2024-03-08T03:38:05;40.8;;;23.5;;
83646;SDS011;73609;50.134;14.376;2024-03-08T03:40:05;42.7;;;24.9;;
83646;SDS011;73609;50.134;14.376;2024-03-08T03:42:05;40.1;;;24.1;;
83646;SDS011;73609;50.134;14.376;2024-03-08T03:44:05;41.8;;;24.5;;
83646;SDS011;73609;50.134;14.376;2024-03-08T03:46:06;42.4;;;24.1;;
83646;SDS011;73609;50.134;14.376;2024-03-08T03:48:06;41.9;;;24.0;;
83646;SDS011;73609;50.134;14.376;2024-03-08T03:50:05;40.7;;;24.7;;
83646;SDS011;73609;50.134;14.376;2024-03-08T03:52:05;38.9;;;24.0;;
83646;SDS011;73609;50.134;14.376;2024-03-08T03:54:05;43.0;;;24.5;;
83646;SDS011;73609;50.134;14.376;2024-03-08T03:56:05;43.3;;;24.9;;
83646;SDS011;73609;50.134;14.376;2024-03-08T03:58:05;40.0;;;24.8;;
83646;SDS011;73609;50.134;14.376;2024-03-08T04:00:05;41.1;;;24.2;;
83646;SDS011;73609;50.134;14.376;2024-03-08T04:02:05;42.0;;;25.2;;
83646;SDS011;73609;50.134;14.376;2024-03-08T04:04:05;38.5;;;23.0;;
83646;SDS011;73609;50.134;14.376;2024-03-08T04:06:05;42.8;;;24.0;;
83646;SDS011;73609;50.134;14.376;2024-03-08T04:08:05;41.6;;;24.5;;
83646;SDS011;73609;50.134;14.376;2024-03-08T04:10:06;40.8;;;23.7;;
83646;SDS011;73609;50.134;14.376;2024-03-08T04:12:05;43.9;;;25.0;;
83646;SDS011;73609;50.134;14.376;2024-03-08T04:14:05;43.5;;;24.8;;
83646;SDS011;73609;50.134;14.376;2024-03-08T04:16:05;42.5;;;24.3;;
83646;SDS011;73609;50.134;14.376;2024-03-08T04:18:05;44.0;;;24.2;;
83646;SDS011;73609;50.134;14.376;2024-03-08T04:20:05;40.0;;;24.4;;
83646;SDS011;73609;50.134;14.376;2024-03-08T04:22:05;41.4;;;25.1;;
83646;SDS011;73609;50.134;14.376;2024-03-08T04:24:05;41.5;;;25.3;;
83646;SDS011;73609;50.134;14.376;2024-03-08T04:26:05;42.9;;;25.0;;
83646;SDS011;73609;50.134;14.376;2024-03-08T04:28:05;42.0;;;24.5;;
83646;SDS011;73609;50.134;14.376;2024-03-08T04:30:05;42.0;;;25.5;;
83646;SDS011;73609;50.134;14.376;2024-03-08T04:32:05;43.6;;;24.9;;
83646;SDS011;73609;50.134;14.376;2024-03-08T04:34:05;41.5;;;25.0;;
83646;SDS011;73609;50.134;14.376;2024-03-08T04:36:05;42.4;;;24.9;;
83646;SDS011;73609;50.134;14.376;2024-03-08T04:38:05;42.8;;;24.7;;
83646;SDS011;73609;50.134;14.376;2024-03-08T04:40:05;42.5;;;25.2;;
83646;SDS011;73609;50.134;14.376;2024-03-08T04:42:05;43.0;;;25.2;;
83646;SDS011;73609;50.134;14.376;2024-03-08T04:44:05;43.1;;;26.0;;
83646;SDS011;73609;50.134;14.376;2024-03-08T04:46:05;44.8;;;25.3;;
83646;SDS011;73609;50.134;14.376;2024-03-08T04:48:05;44.3;;;25.1;;
83646;SDS011;73609;50.134;14.376;2024-03-08T04:50:05;43.8;;;25.0;;
83646;SDS011;73609;50.134;14.376;2024-03-08T04:52:05;41.6;;;25.0;;
83646;SDS011;73609;50.134;14.376;2024-03-08T04:54:05;44.3;;;25.4;;
83646;SDS011;73609;50.134;14.376;2024-03-08T04:56:05;43.5;;;25.6;;
83646;SDS011;73609;50.134;14.376;2024-03-08T04:58:05;41.6;;;23.9;;
83646;SDS011;73609;50.134;14.376;2024-03-08T05:00:05;42.7;;;24.8;;
83646;SDS011;73609;50.134;14.376;2024-03-08T05:02:05;43.6;;;24.9;;
83646;SDS011;73609;50.134;14.376;2024-03-08T05:04:05;45.7;;;26.8;;
83646;SDS011;73609;50.134;14.376;2024-03-08T05:06:07;40.1;;;24.8;;
83646;SDS011;73609;50.134;14.376;2024-03-08T05:08:05;46.8;;;26.0;;
83646;SDS011;73609;50.134;14.376;2024-03-08T05:10:05;44.8;;;26.5;;
83646;SDS011;73609;50.134;14.376;2024-03-08T05:12:05;42.5;;;25.6;;
83646;SDS011;73609;50.134;14.376;2024-03-08T05:14:05;43.0;;;25.4;;
83646;SDS011;73609;50.134;14.376;2024-03-08T05:16:05;42.1;;;25.7;;
83646;SDS011;73609;50.134;14.376;2024-03-08T05:18:06;41.2;;;24.4;;
83646;SDS011;73609;50.134;14.376;2024-03-08T05:20:05;43.4;;;24.8;;
83646;SDS011;73609;50.134;14.376;2024-03-08T05:22:05;44.6;;;24.7;;
83646;SDS011;73609;50.134;14.376;2024-03-08T05:24:05;45.1;;;25.8;;
83646;SDS011;73609;50.134;14.376;2024-03-08T05:26:05;42.1;;;26.1;;
83646;SDS011;73609;50.134;14.376;2024-03-08T05:28:05;46.5;;;26.2;;
83646;SDS011;73609;50.134;14.376;2024-03-08T05:30:05;46.3;;;26.3;;
83646;SDS011;73609;50.134;14.376;2024-03-08T05:32:05;44.0;;;26.2;;
83646;SDS011;73609;50.134;14.376;2024-03-08T05:34:05;43.5;;;24.8;;
83646;SDS011;73609;50.134;14.376;2024-03-08T05:36:05;44.6;;;24.7;;
83646;SDS011;73609;50.134;14.376;2024-03-08T05:38:05;42.3;;;25.3;;
83646;SDS011;73609;50.134;14.376;2024-03-08T05:40:05;42.4;;;24.6;;
83646;SDS011;73609;50.134;14.376;2024-03-08T05:42:05;43.4;;;25.1;;
83646;SDS011;73609;50.134;14.376;2024-03-08T05:44:05;43.9;;;25.4;;
83646;SDS011;73609;50.134;14.376;2024-03-08T05:46:05;42.0;;;24.5;;
83646;SDS011;73609;50.134;14.376;2024-03-08T05:48:05;42.4;;;24.5;;
83646;SDS011;73609;50.134;14.376;2024-03-08T05:50:05;42.4;;;24.0;;
83646;SDS011;73609;50.134;14.376;2024-03-08T05:52:05;42.7;;;24.5;;
83646;SDS011;73609;50.134;14.376;2024-03-08T05:54:06;42.8;;;24.5;;
83646;SDS011;73609;50.134;14.376;2024-03-08T05:56:05;42.5;;;24.1;;
83646;SDS011;73609;50.134;14.376;2024-03-08T05:58:05;40.3;;;23.4;;
83646;SDS011;73609;50.134;14.376;2024-03-08T06:00:05;40.4;;;24.0;;
83646;SDS011;73609;50.134;14.376;2024-03-08T06:02:05;43.8;;;24.7;;
83646;SDS011;73609;50.134;14.376;2024-03-08T06:04:05;43.3;;;24.3;;
83646;SDS011;73609;50.134;14.376;2024-03-08T06:06:05;42.2;;;24.5;;
83646;SDS011;73609;50.134;14.376;2024-03-08T06:08:05;42.6;;;24.5;;
83646;SDS011;73609;50.134;14.376;2024-03-08T06:10:06;39.9;;;23.7;;
83646;SDS011;73609;50.134;14.376;2024-03-08T06:12:05;41.0;;;23.2;;
83646;SDS011;73609;50.134;14.376;2024-03-08T06:14:05;41.8;;;23.7;;
83646;SDS011;73609;50.134;14.376;2024-03-08T06:16:05;38.8;;;22.9;;
83646;SDS011;73609;50.134;14.376;2024-03-08T06:18:05;42.2;;;23.5;;
83646;SDS011;73609;50.134;14.376;2024-03-08T06:20:06;40.1;;;23.1;;
83646;SDS011;73609;50.134;14.376;2024-03-08T06:22:05;42.1;;;23.7;;
83646;SDS011;73609;50.134;14.376;2024-03-08T06:24:05;40.4;;;23.3;;
83646;SDS011;73609;50.134;14.376;2024-03-08T06:26:05;41.4;;;23.0;;
83646;SDS011;73609;50.134;14.376;2024-03-08T06:28:05;41.5;;;24.3;;
83646;SDS011;73609;50.134;14.376;2024-03-08T06:30:05;42.8;;;23.6;;
83646;SDS011;73609;50.134;14.376;2024-03-08T06:32:05;42.9;;;24.5;;
83646;SDS011;73609;50.134;14.376;2024-03-08T06:34:05;38.9;;;23.4;;
83646;SDS011;73609;50.134;14.376;2024-03-08T06:36:05;42.9;;;24.0;;
83646;SDS011;73609;50.134;14.376;2024-03-08T06:38:05;40.4;;;23.0;;
83646;SDS011;73609;50.134;14.376;2024-03-08T06:40:05;41.6;;;23.2;;
83646;SDS011;73609;50.134;14.376;2024-03-08T06:42:05;39.5;;;22.9;;
83646;SDS011;73609;50.134;14.376;2024-03-08T06:44:05;41.6;;;24.5;;
83646;SDS011;73609;50.134;14.376;2024-03-08T06:46:05;41.9;;;23.5;;
83646;SDS011;73609;50.134;14.376;2024-03-08T06:48:05;41.6;;;24.1;;
83646;SDS011;73609;50.134;14.376;2024-03-08T06:50:05;40.0;;;24.4;;
83646;SDS011;73609;50.134;14.376;2024-03-08T06:52:05;42.2;;;24.9;;
83646;SDS011;73609;50.134;14.376;2024-03-08T06:54:05;41.7;;;24.6;;
83646;SDS011;73609;50.134;14.376;2024-03-08T06:56:05;41.8;;;24.2;;
83646;SDS011;73609;50.134;14.376;2024-03-08T06:58:05;42.1;;;23.9;;
83646;SDS011;73609;50.134;14.376;2024-03-08T07:00:06;42.3;;;23.6;;
83646;SDS011;73609;50.134;14.376;2024-03-08T07:02:05;40.7;;;23.2;;
83646;SDS011;73609;50.134;14.376;2024-03-08T07:04:05;40.4;;;23.8;;
83646;SDS011;73609;50.134;14.376;2024-03-08T07:06:05;42.6;;;25.2;;
83646;SDS011;73609;50.134;14.376;2024-03-08T07:08:05;44.2;;;24.2;;
83646;SDS011;73609;50.134;14.376;2024-03-08T07:10:05;40.6;;;24.4;;
83646;SDS011;73609;50.134;14.376;2024-03-08T07:12:05;40.4;;;24.3;;
83646;SDS011;73609;50.134;14.376;2024-03-08T07:14:05;45.5;;;26.3;;
83646;SDS011;73609;50.134;14.376;2024-03-08T07:16:05;44.0;;;25.8;;
83646;SDS011;73609;50.134;14.376;2024-03-08T07:18:05;45.7;;;25.0;;
83646;SDS011;73609;50.134;14.376;2024-03-08T07:20:06;41.6;;;24.5;;
83646;SDS011;73609;50.134;14.376;2024-03-08T07:22:05;41.9;;;24.9;;
83646;SDS011;73609;50.134;14.376;2024-03-08T07:24:05;40.9;;;23.7;;
83646;SDS011;73609;50.134;14.376;2024-03-08T07:26:05;44.1;;;24.4;;
83646;SDS011;73609;50.134;14.376;2024-03-08T07:28:05;42.3;;;23.6;;
83646;SDS011;73609;50.134;14.376;2024-03-08T07:30:05;42.6;;;24.5;;
83646;SDS011;73609;50.134;14.376;2024-03-08T07:32:05;41.0;;;24.4;;
83646;SDS011;73609;50.134;14.376;2024-03-08T07:34:05;40.5;;;24.4;;
83646;SDS011;73609;50.134;14.376;2024-03-08T07:36:05;41.5;;;23.7;;
83646;SDS011;73609;50.134;14.376;2024-03-08T07:38:05;43.8;;;23.4;;
83646;SDS011;73609;50.134;14.376;2024-03-08T07:40:05;39.3;;;24.5;;
83646;SDS011;73609;50.134;14.376;2024-03-08T07:42:05;40.1;;;24.4;;
83646;SDS011;73609;50.134;14.376;2024-03-08T07:44:06;39.8;;;23.6;;
83646;SDS011;73609;50.134;14.376;2024-03-08T07:46:05;44.6;;;23.8;;
83646;SDS011;73609;50.134;14.376;2024-03-08T07:48:05;38.3;;;22.5;;
83646;SDS011;73609;50.134;14.376;2024-03-08T07:50:05;41.7;;;23.4;;
83646;SDS011;73609;50.134;14.376;2024-03-08T07:52:05;40.4;;;22.6;;
83646;SDS011;73609;50.134;14.376;2024-03-08T07:54:05;38.2;;;21.9;;
83646;SDS011;73609;50.134;14.376;2024-03-08T07:56:05;35.5;;;21.4;;
83646;SDS011;73609;50.134;14.376;2024-03-08T07:58:05;36.3;;;22.0;;
83646;SDS011;73609;50.134;14.376;2024-03-08T08:00:05;38.7;;;22.3;;
83646;SDS011;73609;50.134;14.376;2024-03-08T08:02:05;41.3;;;23.6;;
83646;SDS011;73609;50.134;14.376;2024-03-08T08:04:05;36.5;;;22.0;;
83646;SDS011;73609;50.134;14.376;2024-03-08T08:06:05;36.0;;;20.8;;
83646;SDS011;73609;50.134;14.376;2024-03-08T08:08:05;40.3;;;22.4;;
83646;SDS011;73609;50.134;14.376;2024-03-08T08:10:05;38.0;;;21.5;;
83646;SDS011;73609;50.134;14.376;2024-03-08T08:12:05;35.2;;;21.1;;
83646;SDS011;73609;50.134;14.376;2024-03-08T08:14:05;33.4;;;20.7;;
83646;SDS011;73609;50.134;14.376;2024-03-08T08:16:05;35.2;;;20.7;;
83646;SDS011;73609;50.134;14.376;2024-03-08T08:18:05;34.7;;;20.3;;
83646;SDS011;73609;50.134;14.376;2024-03-08T08:20:05;34.5;;;20.1;;
83646;SDS011;73609;50.134;14.376;2024-03-08T08:22:05;32.2;;;19.0;;
83646;SDS011;73609;50.134;14.376;2024-03-08T08:24:05;31.8;;;18.9;;
83646;SDS011;73609;50.134;14.376;2024-03-08T08:26:05;29.1;;;17.9;;
83646;SDS011;73609;50.134;14.376;2024-03-08T08:28:05;33.0;;;19.8;;
83646;SDS011;73609;50.134;14.376;2024-03-08T08:30:05;34.7;;;20.1;;
83646;SDS011;73609;50.134;14.376;2024-03-08T08:32:05;33.4;;;20.0;;
83646;SDS011;73609;50.134;14.376;2024-03-08T08:34:05;34.0;;;20.5;;
83646;SDS011;73609;50.134;14.376;2024-03-08T08:36:05;34.3;;;20.9;;
83646;SDS011;73609;50.134;14.376;2024-03-08T08:38:05;34.0;;;19.9;;
83646;SDS011;73609;50.134;14.376;2024-03-08T08:40:05;34.5;;;20.6;;
83646;SDS011;73609;50.134;14.376;2024-03-08T08:42:05;33.5;;;19.9;;
83646;SDS011;73609;50.134;14.376;2024-03-08T08:44:05;34.4;;;20.1;;
83646;SDS011;73609;50.134;14.376;2024-03-08T08:46:05;37.4;;;20.5;;
83646;SDS011;73609;50.134;14.376;2024-03-08T08:48:05;37.2;;;20.1;;
83646;SDS011;73609;50.134;14.376;2024-03-08T08:50:05;35.9;;;20.5;;
83646;SDS011;73609;50.134;14.376;2024-03-08T08:52:05;34.8;;;20.8;;
83646;SDS011;73609;50.134;14.376;2024-03-08T08:54:05;33.0;;;20.8;;
83646;SDS011;73609;50.134;14.376;2024-03-08T08:56:06;36.4;;;20.7;;
83646;SDS011;73609;50.134;14.376;2024-03-08T08:58:05;37.9;;;21.0;;
83646;SDS011;73609;50.134;14.376;2024-03-08T09:00:05;33.2;;;19.9;;
83646;SDS011;73609;50.134;14.376;2024-03-08T09:02:06;35.4;;;20.9;;
83646;SDS011;73609;50.134;14.376;2024-03-08T09:04:05;35.4;;;21.2;;
83646;SDS011;73609;50.134;14.376;2024-03-08T09:06:05;36.6;;;21.4;;
83646;SDS011;73609;50.134;14.376;2024-03-08T09:08:05;34.2;;;20.5;;
83646;SDS011;73609;50.134;14.376;2024-03-08T09:10:05;34.2;;;20.5;;
83646;SDS011;73609;50.134;14.376;2024-03-08T09:12:05;34.3;;;21.3;;
83646;SDS011;73609;50.134;14.376;2024-03-08T09:14:05;34.7;;;20.9;;
83646;SDS011;73609;50.134;14.376;2024-03-08T09:16:05;33.4;;;19.9;;
83646;SDS011;73609;50.134;14.376;2024-03-08T09:18:05;35.3;;;21.4;;
83646;SDS011;73609;50.134;14.376;2024-03-08T09:20:06;36.0;;;21.8;;
83646;SDS011;73609;50.134;14.376;2024-03-08T09:22:05;34.6;;;21.3;;
83646;SDS011;73609;50.134;14.376;2024-03-08T09:24:05;35.0;;;22.0;;
83646;SDS011;73609;50.134;14.376;2024-03-08T09:26:05;34.5;;;21.2;;
83646;SDS011;73609;50.134;14.376;2024-03-08T09:28:05;35.8;;;20.8;;
83646;SDS011;73609;50.134;14.376;2024-03-08T09:30:05;33.7;;;21.0;;
83646;SDS011;73609;50.134;14.376;2024-03-08T09:32:05;36.8;;;21.3;;
83646;SDS011;73609;50.134;14.376;2024-03-08T09:34:05;36.1;;;22.1;;
83646;SDS011;73609;50.134;14.376;2024-03-08T09:36:06;33.3;;;20.4;;
83646;SDS011;73609;50.134;14.376;2024-03-08T09:38:05;38.7;;;22.2;;
83646;SDS011;73609;50.134;14.376;2024-03-08T09:40:05;33.8;;;21.4;;
83646;SDS011;73609;50.134;14.376;2024-03-08T09:42:05;34.8;;;21.5;;
83646;SDS011;73609;50.134;14.376;2024-03-08T09:44:05;33.7;;;21.1;;
83646;SDS011;73609;50.134;14.376;2024-03-08T09:46:05;33.0;;;21.3;;
83646;SDS011;73609;50.134;14.376;2024-03-08T09:48:05;33.3;;;21.0;;
83646;SDS011;73609;50.134;14.376;2024-03-08T09:50:06;33.8;;;21.8;;
83646;SDS011;73609;50.134;14.376;2024-03-08T09:52:05;37.3;;;22.0;;
83646;SDS011;73609;50.134;14.376;2024-03-08T09:54:05;32.3;;;20.1;;
83646;SDS011;73609;50.134;14.376;2024-03-08T09:56:05;32.9;;;19.8;;
83646;SDS011;73609;50.134;14.376;2024-03-08T09:58:05;32.0;;;19.7;;
83646;SDS011;73609;50.134;14.376;2024-03-08T10:00:05;31.2;;;18.8;;
83646;SDS011;73609;50.134;14.376;2024-03-08T10:02:05;32.1;;;19.6;;
83646;SDS011;73609;50.134;14.376;2024-03-08T10:04:05;33.5;;;20.5;;
83646;SDS011;73609;50.134;14.376;2024-03-08T10:06:06;30.5;;;19.2;;
83646;SDS011;73609;50.134;14.376;2024-03-08T10:08:05;32.6;;;20.4;;
83646;SDS011;73609;50.134;14.376;2024-03-08T10:10:05;30.5;;;19.8;;
83646;SDS011;73609;50.134;14.376;2024-03-08T10:12:05;32.1;;;20.3;;
83646;SDS011;73609;50.134;14.376;2024-03-08T10:14:05;31.5;;;19.5;;
83646;SDS011;73609;50.134;14.376;2024-03-08T10:16:05;31.6;;;20.4;;
83646;SDS011;73609;50.134;14.376;2024-03-08T10:18:05;31.3;;;20.2;;
83646;SDS011;73609;50.134;14.376;2024-03-08T10:20:13;31.9;;;20.1;;
83646;SDS011;73609;50.134;14.376;2024-03-08T10:22:05;31.9;;;20.3;;
83646;SDS011;73609;50.134;14.376;2024-03-08T10:24:05;30.8;;;19.9;;
83646;SDS011;73609;50.134;14.376;2024-03-08T10:26:13;31.8;;;19.3;;
83646;SDS011;73609;50.134;14.376;2024-03-08T10:28:05;29.8;;;19.4;;
83646;SDS011;73609;50.134;14.376;2024-03-08T10:30:06;30.8;;;20.6;;
83646;SDS011;73609;50.134;14.376;2024-03-08T10:32:05;29.9;;;19.6;;
83646;SDS011;73609;50.134;14.376;2024-03-08T10:34:05;29.8;;;19.9;;
83646;SDS011;73609;50.134;14.376;2024-03-08T10:36:06;28.6;;;19.1;;
83646;SDS011;73609;50.134;14.376;2024-03-08T10:38:05;29.7;;;19.5;;
83646;SDS011;73609;50.134;14.376;2024-03-08T10:40:05;29.1;;;19.1;;
83646;SDS011;73609;50.134;14.376;2024-03-08T10:42:05;28.1;;;19.5;;
83646;SDS011;73609;50.134;14.376;2024-03-08T10:46:11;26.4;;;18.4;;
83646;SDS011;73609;50.134;14.376;2024-03-08T10:48:10;27.6;;;18.5;;
83646;SDS011;73609;50.134;14.376;2024-03-08T10:50:10;27.9;;;18.9;;
83646;SDS011;73609;50.134;14.376;2024-03-08T10:52:05;25.8;;;18.3;;
83646;SDS011;73609;50.134;14.376;2024-03-08T10:54:05;25.9;;;18.9;;
83646;SDS011;73609;50.134;14.376;2024-03-08T10:56:06;26.4;;;18.1;;
83646;SDS011;73609;50.134;14.376;2024-03-08T10:58:05;25.3;;;18.2;;
83646;SDS011;73609;50.134;14.376;2024-03-08T11:00:07;24.2;;;18.1;;
83646;SDS011;73609;50.134;14.376;2024-03-08T11:02:05;24.7;;;17.5;;
83646;SDS011;73609;50.134;14.376;2024-03-08T11:04:05;22.2;;;17.5;;
83646;SDS011;73609;50.134;14.376;2024-03-08T11:06:05;25.1;;;18.8;;
83646;SDS011;73609;50.134;14.376;2024-03-08T11:08:15;22.9;;;18.6;;
83646;SDS011;73609;50.134;14.376;2024-03-08T11:10:06;25.7;;;19.3;;
83646;SDS011;73609;50.134;14.376;2024-03-08T11:14:05;23.4;;;18.1;;
83646;SDS011;73609;50.134;14.376;2024-03-08T11:16:36;26.0;;;18.4;;
83646;SDS011;73609;50.134;14.376;2024-03-08T11:18:05;25.2;;;18.7;;
83646;SDS011;73609;50.134;14.376;2024-03-08T11:20:08;24.2;;;19.4;;
83646;SDS011;73609;50.134;14.376;2024-03-08T11:22:05;23.0;;;19.2;;
83646;SDS011;73609;50.134;14.376;2024-03-08T11:26:21;23.5;;;19.8;;
83646;SDS011;73609;50.134;14.376;2024-03-08T11:28:13;21.5;;;19.2;;
83646;SDS011;73609;50.134;14.376;2024-03-08T11:30:06;21.9;;;18.2;;
83646;SDS011;73609;50.134;14.376;2024-03-08T11:32:07;22.5;;;18.0;;
83646;SDS011;73609;50.134;14.376;2024-03-08T11:34:11;19.5;;;17.4;;
83646;SDS011;73609;50.134;14.376;2024-03-08T11:38:05;21.2;;;18.1;;
83646;SDS011;73609;50.134;14.376;2024-03-08T11:40:11;21.2;;;17.9;;
83646;SDS011;73609;50.134;14.376;2024-03-08T11:42:05;19.3;;;16.6;;
83646;SDS011;73609;50.134;14.376;2024-03-08T11:44:05;18.6;;;16.3;;
83646;SDS011;73609;50.134;14.376;2024-03-08T11:46:08;21.3;;;17.3;;
83646;SDS011;73609;50.134;14.376;2024-03-08T11:48:05;20.4;;;17.2;;
83646;SDS011;73609;50.134;14.376;2024-03-08T11:50:06;22.8;;;16.1;;
83646;SDS011;73609;50.134;14.376;2024-03-08T11:52:05;19.8;;;15.5;;
83646;SDS011;73609;50.134;14.376;2024-03-08T11:54:06;20.9;;;15.8;;
83646;SDS011;73609;50.134;14.376;2024-03-08T11:56:09;19.0;;;15.4;;
83646;SDS011;73609;50.134;14.376;2024-03-08T11:58:05;20.0;;;16.1;;
83646;SDS011;73609;50.134;14.376;2024-03-08T12:00:05;17.6;;;15.0;;